Orbital elements of FENGYUN 1C DEB
| Launched | 9 May 1999 |
| Flight ended | – |
| Launch site | Taiyuan Space Center, PRC |
| Owner | People's Republic of China |
| NORAD ID | 32088 |
| Date fetched |
Epoch osculation |
Inc. [°] |
Ecc. | RA asc node [hr] |
Arg Peri. [°] |
Mean anom [°] |
Mean motion [rev/day] |
Abs. mag |
| Date fetched |
Epoch osculation |
Inc. [°] |
Ecc. | RA asc node [hr] |
Arg Peri. [°] |
Mean anom [°] |
Mean motion [rev/day] |
Abs. mag |
| 2026 May 05 17:57 | 2026 May 01 12:38:54 | 102.4080 | 0.04637 | 1.3096 | 56.7096 | 307.7551 | 13.25632 | – |
| 2026 May 04 17:57 | 2026 Apr 27 10:50:27 | 102.4066 | 0.04623 | 0.9850 | 65.3409 | 307.7551 | 13.25632 | – |
| 2026 May 03 17:57 | 2026 Apr 27 10:50:27 | 102.4066 | 0.04623 | 0.9850 | 65.3409 | 307.7551 | 13.25632 | – |
| 2026 May 02 17:57 | 2026 Apr 27 10:50:27 | 102.4066 | 0.04623 | 0.9850 | 65.3409 | 307.7551 | 13.25632 | – |
| 2026 May 01 17:56 | 2026 Apr 27 10:50:27 | 102.4066 | 0.04623 | 0.9850 | 65.3409 | 307.7551 | 13.25632 | – |
| 2026 Apr 30 17:56 | 2026 Apr 27 10:50:27 | 102.4066 | 0.04623 | 0.9850 | 65.3409 | 307.7551 | 13.25632 | – |
| 2026 Apr 29 17:57 | 2026 Apr 23 10:50:31 | 102.4075 | 0.04618 | 0.6664 | 73.8511 | 307.7551 | 13.25632 | – |
| 2026 Apr 28 17:56 | 2026 Apr 23 10:50:31 | 102.4075 | 0.04618 | 0.6664 | 73.8511 | 307.7551 | 13.25632 | – |
| 2026 Apr 27 17:58 | 2026 Apr 23 10:50:31 | 102.4075 | 0.04618 | 0.6664 | 73.8511 | 307.7551 | 13.25632 | – |
| 2026 Apr 26 17:58 | 2026 Apr 23 10:50:31 | 102.4075 | 0.04618 | 0.6664 | 73.8511 | 307.7551 | 13.25632 | – |
| 2026 Apr 25 17:58 | 2026 Apr 23 10:50:31 | 102.4075 | 0.04618 | 0.6664 | 73.8511 | 307.7551 | 13.25632 | – |
| 2026 Apr 24 17:59 | 2026 Apr 23 10:50:31 | 102.4075 | 0.04618 | 0.6664 | 73.8511 | 307.7551 | 13.25632 | – |
| 2026 Apr 23 17:57 | 2026 Apr 19 10:50:28 | 102.4057 | 0.04609 | 0.3478 | 82.3656 | 307.7551 | 13.25632 | – |
| 2026 Apr 22 17:57 | 2026 Apr 19 10:50:28 | 102.4057 | 0.04609 | 0.3478 | 82.3656 | 307.7551 | 13.25632 | – |
| 2026 Apr 21 17:57 | 2026 Apr 19 10:50:28 | 102.4057 | 0.04609 | 0.3478 | 82.3656 | 307.7551 | 13.25632 | – |
| 2026 Apr 20 17:57 | 2026 Apr 19 10:50:28 | 102.4057 | 0.04609 | 0.3478 | 82.3656 | 307.7551 | 13.25632 | – |
| 2026 Apr 19 17:58 | 2026 Apr 19 10:50:28 | 102.4057 | 0.04609 | 0.3478 | 82.3656 | 307.7551 | 13.25632 | – |
| 2026 Apr 18 17:56 | 2026 Apr 09 09:55:23 | 102.4061 | 0.04579 | 23.5486 | 103.8516 | 307.7551 | 13.25632 | – |
| 2026 Apr 16 17:57 | 2026 Apr 09 09:55:23 | 102.4061 | 0.04579 | 23.5486 | 103.8516 | 307.7551 | 13.25632 | – |
| 2026 Apr 14 17:57 | 2026 Apr 09 09:55:23 | 102.4061 | 0.04579 | 23.5486 | 103.8516 | 307.7551 | 13.25632 | – |
| 2026 Apr 13 17:57 | 2026 Apr 09 09:55:23 | 102.4061 | 0.04579 | 23.5486 | 103.8516 | 307.7551 | 13.25632 | – |
| 2026 Apr 12 17:57 | 2026 Apr 04 10:21:52 | 102.4077 | 0.04565 | 23.1521 | 114.5934 | 307.7551 | 13.25632 | – |
| 2026 Apr 11 17:57 | 2026 Apr 04 10:21:52 | 102.4077 | 0.04565 | 23.1521 | 114.5934 | 307.7551 | 13.25632 | – |
| 2026 Apr 10 17:58 | 2026 Apr 04 10:21:52 | 102.4077 | 0.04565 | 23.1521 | 114.5934 | 307.7551 | 13.25632 | – |
| 2026 Apr 09 18:01 | 2026 Apr 04 10:21:52 | 102.4077 | 0.04565 | 23.1521 | 114.5934 | 307.7551 | 13.25632 | – |
| 2026 Apr 08 17:57 | 2026 Apr 04 10:21:52 | 102.4077 | 0.04565 | 23.1521 | 114.5934 | 307.7551 | 13.25632 | – |